Time;durP1;ratioP1;P1;durP2;ratioP2;P2;SDS_P1;SDS_P2;PMS_P1;PMS_P2;Temp;Humidity;BMP_temperature;BMP_pressure;BME280_temperature;BME280_humidity;BME280_pressure;Samples;Min_cycle;Max_cycle;Signal;HPM_P1;HPM_P2
2022/12/06 00:01:44;;;;;;;;;;;;;;;25.50;42.97;94330.47;4977539;28;7285;-62
2022/12/06 00:04:14;;;;;;;;;;;;;;;25.51;42.85;94320.19;4983289;28;7117;-63
2022/12/06 00:06:47;;;;;;;;;;;;;;;25.51;42.66;94325.72;4974267;28;7234;-63
2022/12/06 00:09:22;;;;;;;;;;;;;;;25.50;43.16;94322.19;4990641;28;7066;-63
2022/12/06 00:11:48;;;;;;;;;;;;;;;25.50;43.33;94315.94;4976085;28;7310;-63
2022/12/06 00:14:15;;;;;;;;;;;;;;;25.50;43.06;94315.94;4976383;28;7113;-63
2022/12/06 00:16:41;;;;;;;;;;;;;;;25.50;43.33;94324.97;4984455;28;8650;-63
2022/12/06 00:19:37;;;;;;;;;;;;;;;25.50;43.07;94322.19;5001283;28;7152;-63
2022/12/06 00:22:21;;;;;;;;;;;;;;;25.50;42.58;94315.94;4929907;29;7359;-63
2022/12/06 00:24:47;;;;;;;;;;;;;;;25.49;43.34;94315.19;4938588;28;9200;-64
2022/12/06 00:27:16;;;;;;;;;;;;;;;25.49;42.55;94311.72;4929424;29;7273;-62
2022/12/06 00:30:00;;;;;;;;;;;;;;;25.50;42.84;94313.94;4946291;28;7037;-63
2022/12/06 00:32:27;;;;;;;;;;;;;;;25.50;43.28;94313.19;4935075;29;9200;-64
2022/12/06 00:35:07;;;;;;;;;;;;;;;25.50;42.87;94311.19;4917703;29;9487;-63
2022/12/06 00:37:35;;;;;;;;;;;;;;;25.49;43.15;94306.94;4949356;29;9438;-63
2022/12/06 00:40:19;;;;;;;;;;;;;;;25.50;43.35;94304.94;4938438;28;9255;-63
2022/12/06 00:42:55;;;;;;;;;;;;;;;25.46;42.72;94299.72;4930303;29;9037;-63
2022/12/06 00:45:40;;;;;;;;;;;;;;;25.50;42.95;94294.66;4929758;29;8697;-64
2022/12/06 00:48:06;;;;;;;;;;;;;;;25.49;42.61;94297.94;4942772;28;7310;-63
2022/12/06 00:50:33;;;;;;;;;;;;;;;25.48;43.10;94297.19;4928103;28;7345;-62
2022/12/06 00:53:18;;;;;;;;;;;;;;;25.49;42.55;94295.91;4943460;28;7219;-63
2022/12/06 00:55:44;;;;;;;;;;;;;;;25.49;42.61;94300.69;4950286;28;7046;-63
2022/12/06 00:58:11;;;;;;;;;;;;;;;25.49;42.58;94295.19;4958403;28;6975;-63
2022/12/06 01:00:38;;;;;;;;;;;;;;;25.49;42.48;94292.44;4988432;28;7016;-63
2022/12/06 01:03:04;;;;;;;;;;;;;;;25.49;42.74;94300.69;4994078;28;7178;-63
2022/12/06 01:05:50;;;;;;;;;;;;;;;25.48;42.80;94302.69;4987563;28;6966;-63
2022/12/06 01:08:19;;;;;;;;;;;;;;;25.48;42.76;94294.44;5007479;28;6860;-63
2022/12/06 01:10:57;;;;;;;;;;;;;;;25.47;43.13;94292.94;4975521;28;7471;-63
2022/12/06 01:13:23;;;;;;;;;;;;;;;25.47;43.08;94287.41;4986486;28;7413;-63
2022/12/06 01:15:49;;;;;;;;;;;;;;;25.48;42.91;94283.41;4992204;28;7326;-62
2022/12/06 01:18:15;;;;;;;;;;;;;;;25.48;42.32;94282.66;4983511;28;8085;-63
2022/12/06 01:20:41;;;;;;;;;;;;;;;25.46;43.11;94288.69;4984935;28;7124;-62
2022/12/06 01:23:07;;;;;;;;;;;;;;;25.46;42.45;94285.19;4978285;28;7111;-62
2022/12/06 01:25:35;;;;;;;;;;;;;;;25.46;42.58;94291.44;4982834;28;7184;-61
2022/12/06 01:28:08;;;;;;;;;;;;;;;25.46;42.60;94291.44;4998214;28;9320;-63
2022/12/06 01:30:38;;;;;;;;;;;;;;;25.47;42.64;94295.69;4994858;28;9052;-63
2022/12/06 01:33:24;;;;;;;;;;;;;;;25.45;42.70;94289.94;4988011;28;9091;-64
2022/12/06 01:35:51;;;;;;;;;;;;;;;25.44;42.40;94285.69;4986251;28;7454;-63
2022/12/06 01:38:20;;;;;;;;;;;;;;;25.45;43.05;94280.94;4985662;28;7259;-62
2022/12/06 01:40:48;;;;;;;;;;;;;;;25.45;42.99;94278.91;4975950;28;9638;-63
2022/12/06 01:43:39;;;;;;;;;;;;;;;25.45;42.32;94283.69;4990507;28;9107;-63
2022/12/06 01:46:43;;;;;;;;;;;;;;;25.45;42.17;94287.19;4979952;28;7842;-63
2022/12/06 01:49:12;;;;;;;;;;;;;;;25.45;42.23;94278.91;4982457;28;7080;-63
2022/12/06 01:51:48;;;;;;;;;;;;;;;25.46;42.40;94274.16;4981510;28;7119;-63
2022/12/06 01:54:31;;;;;;;;;;;;;;;25.45;42.29;94275.44;4999468;28;7234;-63
2022/12/06 01:57:04;;;;;;;;;;;;;;;25.45;42.18;94267.91;4974815;28;7035;-63
2022/12/06 01:59:30;;;;;;;;;;;;;;;25.45;42.51;94273.41;4991744;28;8425;-62
2022/12/06 02:01:58;;;;;;;;;;;;;;;25.44;42.42;94271.94;4982957;28;7088;-63
2022/12/06 02:04:35;;;;;;;;;;;;;;;25.45;42.65;94267.91;4983539;28;7156;-63
2022/12/06 02:07:11;;;;;;;;;;;;;;;25.44;42.54;94271.94;4977927;28;7253;-63
2022/12/06 02:09:38;;;;;;;;;;;;;;;25.45;42.25;94267.19;4993298;28;7270;-63
2022/12/06 02:12:12;;;;;;;;;;;;;;;25.45;42.10;94273.41;4980643;28;7073;-63
2022/12/06 02:14:40;;;;;;;;;;;;;;;25.43;42.88;94273.19;4989117;28;7071;-63
2022/12/06 02:17:36;;;;;;;;;;;;;;;25.43;42.34;94264.91;4983903;28;7047;-63
2022/12/06 02:20:35;;;;;;;;;;;;;;;25.43;42.21;94259.41;4976083;28;7298;-62
2022/12/06 02:23:23;;;;;;;;;;;;;;;25.41;42.53;94256.41;4993112;28;7285;-63
2022/12/06 02:26:13;;;;;;;;;;;;;;;25.41;42.24;94257.16;4991245;28;7785;-62
2022/12/06 02:28:58;;;;;;;;;;;;;;;25.40;42.60;94255.66;4989991;28;10009;-62
2022/12/06 02:31:40;;;;;;;;;;;;;;;25.40;42.63;94255.66;4986236;28;7173;-62
2022/12/06 02:34:16;;;;;;;;;;;;;;;25.42;42.15;94252.44;4983518;28;7538;-63
2022/12/06 02:37:02;;;;;;;;;;;;;;;25.43;42.41;94248.41;4975324;28;7457;-63
2022/12/06 02:39:38;;;;;;;;;;;;;;;25.42;42.79;94242.13;4975579;28;7207;-63
2022/12/06 02:42:15;;;;;;;;;;;;;;;25.42;41.85;94239.38;4989250;28;7298;-63
2022/12/06 02:44:53;;;;;;;;;;;;;;;25.42;41.91;94241.41;4991895;28;8864;-63
2022/12/06 02:47:31;;;;;;;;;;;;;;;25.42;41.92;94244.16;4981991;28;7018;-63
2022/12/06 02:50:04;;;;;;;;;;;;;;;25.41;42.10;94234.38;4997933;28;7307;-62
2022/12/06 02:52:31;;;;;;;;;;;;;;;25.42;42.71;94235.91;4984228;28;9423;-62
2022/12/06 02:55:02;;;;;;;;;;;;;;;25.41;42.46;94235.13;4978284;28;7089;-64
2022/12/06 02:57:56;;;;;;;;;;;;;;;25.42;42.76;94238.66;4999858;28;7457;-62
2022/12/06 03:00:28;;;;;;;;;;;;;;;25.41;42.00;94231.63;4990927;28;7362;-63
2022/12/06 03:03:19;;;;;;;;;;;;;;;25.39;41.96;94229.38;4991895;28;7052;-63
2022/12/06 03:05:51;;;;;;;;;;;;;;;25.42;41.84;94235.91;4989471;28;9056;-63
2022/12/06 03:08:35;;;;;;;;;;;;;;;25.42;42.08;94236.63;4982700;28;8348;-63
2022/12/06 03:11:43;;;;;;;;;;;;;;;25.41;41.80;94243.38;4982122;28;7466;-63
2022/12/06 03:14:23;;;;;;;;;;;;;;;25.41;42.52;94237.88;4991170;28;7070;-63
2022/12/06 03:17:10;;;;;;;;;;;;;;;25.40;42.54;94232.91;4990384;28;9000;-64
2022/12/06 03:19:41;;;;;;;;;;;;;;;25.40;42.34;94230.16;4975653;28;7033;-63
2022/12/06 03:22:40;;;;;;;;;;;;;;;25.39;41.76;94229.38;4983709;28;9581;-64
2022/12/06 03:25:16;;;;;;;;;;;;;;;25.40;42.60;94227.38;4975144;28;7579;-64
2022/12/06 03:27:49;;;;;;;;;;;;;;;25.39;42.89;94223.88;4976488;28;7196;-63
2022/12/06 03:30:22;;;;;;;;;;;;;;;25.39;41.86;94223.13;4972813;28;7416;-64
2022/12/06 03:32:50;;;;;;;;;;;;;;;25.38;42.52;94218.91;4973478;28;7081;-64
2022/12/06 03:35:30;;;;;;;;;;;;;;;25.36;41.79;94218.63;4974394;28;7297;-64
2022/12/06 03:38:09;;;;;;;;;;;;;;;25.39;42.72;94210.13;4969227;28;7462;-63
2022/12/06 03:40:42;;;;;;;;;;;;;;;25.39;42.04;94206.59;4975678;28;7194;-64
2022/12/06 03:43:09;;;;;;;;;;;;;;;25.39;42.25;94206.59;4990017;28;6999;-64
2022/12/06 03:46:17;;;;;;;;;;;;;;;25.40;42.65;94194.34;4989369;28;9138;-63
2022/12/06 03:48:55;;;;;;;;;;;;;;;25.39;42.20;94198.34;4915022;29;9103;-62
2022/12/06 03:51:39;;;;;;;;;;;;;;;25.38;41.74;94191.38;4929765;29;7182;-64
2022/12/06 03:54:22;;;;;;;;;;;;;;;25.38;42.18;94188.63;4915111;29;7003;-64
2022/12/06 03:56:48;;;;;;;;;;;;;;;25.39;42.26;94198.34;4932000;29;7298;-63
2022/12/06 03:59:16;;;;;;;;;;;;;;;25.37;42.57;94196.13;4933142;29;8969;-64
2022/12/06 04:01:43;;;;;;;;;;;;;;;25.37;42.14;94192.63;4917284;29;7265;-63
2022/12/06 04:04:23;;;;;;;;;;;;;;;25.37;42.37;94200.88;4931869;29;7263;-64
2022/12/06 04:06:58;;;;;;;;;;;;;;;25.37;42.34;94198.13;4932666;29;7052;-63
2022/12/06 04:15:09;;;;;;;;;;;;;;;25.37;42.03;94196.13;4931389;29;8989;-64
2022/12/06 04:23:54;;;;;;;;;;;;;;;25.38;42.04;94216.16;4930376;29;7304;-64
2022/12/06 04:26:21;;;;;;;;;;;;;;;25.36;42.43;94208.38;4981678;28;7041;-63
2022/12/06 04:40:13;;;;;;;;;;;;;;;25.36;41.76;94204.88;4988268;28;9320;-63
2022/12/06 04:45:37;;;;;;;;;;;;;;;25.38;42.05;94207.88;4981856;28;7268;-62
2022/12/06 04:48:05;;;;;;;;;;;;;;;25.37;41.95;94203.63;5001457;28;7017;-63
2022/12/06 04:50:50;;;;;;;;;;;;;;;25.37;42.06;94209.13;4988073;28;7365;-64
2022/12/06 04:53:17;;;;;;;;;;;;;;;25.36;42.20;94202.88;4975937;28;7192;-63
2022/12/06 04:56:03;;;;;;;;;;;;;;;25.36;42.37;94202.13;4992184;28;7110;-64
2022/12/06 04:58:29;;;;;;;;;;;;;;;25.35;41.96;94198.66;4987175;28;6999;-64
2022/12/06 05:00:55;;;;;;;;;;;;;;;25.38;41.77;94207.88;4986446;28;7231;-63
2022/12/06 05:03:25;;;;;;;;;;;;;;;25.36;41.88;94200.13;4991476;28;7276;-64
2022/12/06 05:05:51;;;;;;;;;;;;;;;25.37;41.90;94196.13;4984682;28;7150;-63
2022/12/06 05:08:22;;;;;;;;;;;;;;;25.35;41.91;94198.66;4994527;28;8529;-63
2022/12/06 05:11:15;;;;;;;;;;;;;;;25.37;42.22;94211.88;4983722;28;7254;-63
2022/12/06 05:13:42;;;;;;;;;;;;;;;25.38;41.74;94202.38;4954667;28;7351;-63
2022/12/06 05:16:10;;;;;;;;;;;;;;;25.39;42.21;94201.09;4934343;28;9615;-63
2022/12/06 05:18:38;;;;;;;;;;;;;;;25.39;42.17;94179.06;4933564;28;9106;-62
2022/12/06 05:21:18;;;;;;;;;;;;;;;25.38;42.08;94175.56;4940215;28;7208;-62
2022/12/06 05:23:59;;;;;;;;;;;;;;;25.38;41.98;94183.09;4925594;28;7127;-63
2022/12/06 05:26:28;;;;;;;;;;;;;;;25.38;42.02;94183.09;4932793;28;7121;-63
2022/12/06 05:29:06;;;;;;;;;;;;;;;25.37;42.45;94178.84;4937447;28;9921;-63
2022/12/06 05:31:33;;;;;;;;;;;;;;;25.37;42.58;94182.34;4934039;29;7147;-63
2022/12/06 05:34:10;;;;;;;;;;;;;;;25.38;41.67;94181.06;4951492;28;9443;-63
2022/12/06 05:36:45;;;;;;;;;;;;;;;25.39;42.34;94181.84;4930558;28;7209;-63
2022/12/06 05:39:13;;;;;;;;;;;;;;;25.37;42.19;94178.84;4947279;28;9012;-63
2022/12/06 05:42:06;;;;;;;;;;;;;;;25.38;42.43;94183.09;4929653;28;7051;-63
2022/12/06 05:44:34;;;;;;;;;;;;;;;25.37;42.39;94176.84;4927903;29;7039;-63
2022/12/06 05:47:09;;;;;;;;;;;;;;;25.38;41.93;94172.81;4952780;28;7324;-62
2022/12/06 05:49:37;;;;;;;;;;;;;;;25.40;44.55;94164.06;4944318;28;7343;-63
2022/12/06 05:52:05;;;;;;;;;;;;;;;25.45;45.68;94168.78;4969656;28;7236;-64
2022/12/06 05:55:05;;;;;;;;;;;;;;;25.49;44.08;94163.00;4994729;28;7322;-63
2022/12/06 05:57:31;;;;;;;;;;;;;;;25.52;43.77;94170.97;4994062;28;9029;-63
2022/12/06 05:59:59;;;;;;;;;;;;;;;25.54;43.91;94171.19;4982151;28;7266;-63
2022/12/06 06:02:27;;;;;;;;;;;;;;;25.53;43.85;94161.47;4980570;28;7053;-64
2022/12/06 06:04:53;;;;;;;;;;;;;;;25.56;42.94;94162.41;4987878;28;6979;-64
2022/12/06 06:07:19;;;;;;;;;;;;;;;25.55;43.07;94167.19;4987784;28;7278;-63
2022/12/06 06:09:46;;;;;;;;;;;;;;;25.52;42.98;94162.72;4999688;28;7062;-64
2022/12/06 06:12:19;;;;;;;;;;;;;;;25.56;42.62;94162.41;4980772;28;7661;-63
2022/12/06 06:14:52;;;;;;;;;;;;;;;25.58;42.48;94168.91;4976640;28;9557;-64
2022/12/06 06:17:21;;;;;;;;;;;;;;;25.59;42.67;94170.41;4979530;28;7301;-62
2022/12/06 06:19:49;;;;;;;;;;;;;;;25.56;42.00;94163.16;4977254;28;7302;-62
2022/12/06 06:22:24;;;;;;;;;;;;;;;25.60;42.13;94165.66;4980065;28;7254;-63
2022/12/06 06:24:53;;;;;;;;;;;;;;;25.57;42.32;94164.69;4985354;28;7148;-63
2022/12/06 06:27:22;;;;;;;;;;;;;;;25.52;42.05;94159.97;4987767;28;7069;-63
2022/12/06 06:29:53;;;;;;;;;;;;;;;25.49;41.97;94158.22;4984237;28;7120;-63
2022/12/06 06:32:20;;;;;;;;;;;;;;;25.50;41.80;94168.00;4996770;28;7026;-63
2022/12/06 06:34:53;;;;;;;;;;;;;;;25.52;42.67;94156.44;4985983;28;7004;-63
2022/12/06 06:37:19;;;;;;;;;;;;;;;25.54;42.30;94165.69;5001090;28;7002;-63
2022/12/06 06:39:49;;;;;;;;;;;;;;;25.55;42.03;94164.44;4985937;28;7202;-63
2022/12/06 06:42:24;;;;;;;;;;;;;;;25.59;41.64;94167.66;4979581;28;7479;-63
2022/12/06 06:44:53;;;;;;;;;;;;;;;25.59;40.55;94156.63;4984877;28;7308;-63
2022/12/06 06:47:20;;;;;;;;;;;;;;;25.56;40.82;94160.41;4983168;28;7264;-63
2022/12/06 06:49:48;;;;;;;;;;;;;;;25.54;41.41;94160.19;4985650;28;7311;-62
2022/12/06 06:52:14;;;;;;;;;;;;;;;25.55;40.81;94155.44;4998143;28;7076;-62
2022/12/06 06:54:44;;;;;;;;;;;;;;;25.52;41.67;94154.44;4987811;28;7066;-63
2022/12/06 06:57:09;;;;;;;;;;;;;;;25.55;41.17;94160.94;4992860;28;7266;-63
2022/12/06 06:59:41;;;;;;;;;;;;;;;25.54;41.82;94165.69;4983625;28;9418;-62
2022/12/06 07:02:12;;;;;;;;;;;;;;;25.56;40.97;94163.16;4996126;28;7202;-63
2022/12/06 07:04:38;;;;;;;;;;;;;;;25.59;41.29;94166.91;4979102;28;7469;-63
2022/12/06 07:07:04;;;;;;;;;;;;;;;25.57;41.33;94164.69;4985478;28;8737;-63
2022/12/06 07:09:30;;;;;;;;;;;;;;;25.61;41.11;94169.88;4985045;28;10247;-63
2022/12/06 07:11:56;;;;;;;;;;;;;;;25.61;41.29;94167.88;4987190;28;8934;-62
2022/12/06 07:14:22;;;;;;;;;;;;;;;25.60;41.73;94165.66;4982652;28;7220;-62
2022/12/06 07:16:51;;;;;;;;;;;;;;;25.61;41.16;94167.88;4977844;28;9489;-63
2022/12/06 07:19:17;;;;;;;;;;;;;;;25.62;41.38;94182.41;4979806;28;7605;-63
2022/12/06 07:21:52;;;;;;;;;;;;;;;25.62;41.30;94168.63;4976486;28;7061;-63
2022/12/06 07:24:18;;;;;;;;;;;;;;;25.61;41.86;94170.63;4970337;28;7675;-63
2022/12/06 07:27:10;;;;;;;;;;;;;;;25.63;41.54;94167.34;4987931;28;8454;-64
2022/12/06 07:29:37;;;;;;;;;;;;;;;25.61;41.39;94167.13;4936323;28;7350;-63
2022/12/06 07:32:14;;;;;;;;;;;;;;;25.62;41.07;94174.88;4932544;29;7437;-63
2022/12/06 07:34:48;;;;;;;;;;;;;;;25.62;40.95;94172.13;4927679;29;7129;-63
2022/12/06 07:37:17;;;;;;;;;;;;;;;25.62;41.02;94172.13;4915100;29;9330;-63
2022/12/06 07:39:45;;;;;;;;;;;;;;;25.62;41.46;94163.84;4930870;29;8951;-63
2022/12/06 07:45:14;;;;;;;;;;;;;;;25.59;41.11;94167.66;4924498;29;7031;-62
2022/12/06 07:47:43;;;;;;;;;;;;;;;25.62;41.54;94163.13;4915819;29;8345;-63
2022/12/06 07:50:17;;;;;;;;;;;;;;;25.63;41.07;94157.09;4931694;29;8424;-63
2022/12/06 07:53:00;;;;;;;;;;;;;;;25.61;40.99;94159.63;4916382;29;9046;-62
2022/12/06 07:55:33;;;;;;;;;;;;;;;25.63;41.22;94165.34;4916881;29;7414;-62
2022/12/06 07:57:59;;;;;;;;;;;;;;;25.62;41.26;94163.13;4927954;29;7050;-63
2022/12/06 08:00:25;;;;;;;;;;;;;;;25.60;41.92;94158.13;4915941;29;7495;-62
2022/12/06 08:02:52;;;;;;;;;;;;;;;25.62;41.61;94165.88;4915409;29;7278;-63
2022/12/06 08:05:21;;;;;;;;;;;;;;;25.62;42.02;94163.13;4934597;28;7297;-63
2022/12/06 08:07:49;;;;;;;;;;;;;;;25.62;41.59;94160.38;4993954;28;7573;-62
2022/12/06 08:10:15;;;;;;;;;;;;;;;25.61;41.70;94165.13;4991994;28;7073;-63
2022/12/06 08:12:43;;;;;;;;;;;;;;;25.62;41.29;94166.59;4986163;28;7183;-63
2022/12/06 08:15:12;;;;;;;;;;;;;;;25.62;41.71;94165.88;4988319;28;8051;-63
2022/12/06 08:17:41;;;;;;;;;;;;;;;25.62;41.69;94160.38;4992824;28;7113;-62
2022/12/06 08:20:16;;;;;;;;;;;;;;;25.62;41.86;94161.09;4979625;28;7266;-63
2022/12/06 08:22:45;;;;;;;;;;;;;;;25.63;41.01;94168.09;4980336;28;9048;-62
2022/12/06 08:25:11;;;;;;;;;;;;;;;25.60;41.20;94162.91;4990960;28;7248;-62
2022/12/06 08:27:38;;;;;;;;;;;;;;;25.61;41.07;94176.16;4979626;28;7202;-63
2022/12/06 08:30:07;;;;;;;;;;;;;;;25.59;41.23;94169.66;5000103;28;7064;-63
2022/12/06 08:32:33;;;;;;;;;;;;;;;25.62;41.53;94172.13;4990402;28;7069;-62
2022/12/06 08:35:00;;;;;;;;;;;;;;;25.61;41.78;94170.63;4984029;28;7212;-63
2022/12/06 08:37:45;;;;;;;;;;;;;;;25.63;41.93;94170.88;4992593;28;7205;-63
2022/12/06 08:40:24;;;;;;;;;;;;;;;25.61;41.57;94170.63;4983559;28;7600;-63
2022/12/06 08:43:01;;;;;;;;;;;;;;;25.63;41.39;94170.13;4983801;28;7268;-62
2022/12/06 08:45:34;;;;;;;;;;;;;;;25.62;41.53;94174.88;4992077;28;7194;-62
2022/12/06 08:48:00;;;;;;;;;;;;;;;25.61;41.71;94175.41;4983945;28;7310;-63
2022/12/06 08:50:37;;;;;;;;;;;;;;;25.63;41.13;94187.38;4977108;28;8221;-62
2022/12/06 08:53:03;;;;;;;;;;;;;;;25.64;41.28;94182.63;4983097;28;7517;-62
2022/12/06 08:55:35;;;;;;;;;;;;;;;25.67;40.89;94187.09;4983942;28;7259;-62
2022/12/06 08:58:01;;;;;;;;;;;;;;;25.66;40.23;94194.63;4997668;28;7932;-61
2022/12/06 09:00:27;;;;;;;;;;;;;;;25.67;39.64;94189.84;4983584;28;7046;-62
2022/12/06 09:02:52;;;;;;;;;;;;;;;25.64;40.30;94188.91;4985506;28;10242;-63
2022/12/06 09:05:18;;;;;;;;;;;;;;;25.61;39.47;94187.16;4979091;28;7124;-63
2022/12/06 09:07:44;;;;;;;;;;;;;;;25.61;40.10;94187.16;4997802;28;7014;-62
2022/12/06 09:10:20;;;;;;;;;;;;;;;25.64;39.61;94188.16;4992479;28;9622;-62
2022/12/06 09:12:49;;;;;;;;;;;;;;;25.62;39.56;94194.16;4978333;28;7566;-62
2022/12/06 09:15:17;;;;;;;;;;;;;;;25.62;39.91;94194.16;4985067;28;7043;-62
2022/12/06 09:17:50;;;;;;;;;;;;;;;25.64;39.70;94194.41;4983813;28;9373;-61
2022/12/06 09:20:19;;;;;;;;;;;;;;;25.65;40.04;94195.13;4990489;28;7469;-61
2022/12/06 09:22:46;;;;;;;;;;;;;;;25.63;39.75;94190.16;4989120;28;9697;-62
2022/12/06 09:25:20;;;;;;;;;;;;;;;25.65;40.19;94190.38;4992524;28;7341;-62
2022/12/06 09:28:34;;;;;;;;;;;;;;;25.67;40.31;94187.84;5002192;28;7135;-61
2022/12/06 09:31:09;;;;;;;;;;;;;;;25.64;39.97;94194.41;4955048;28;7101;-62
2022/12/06 09:33:53;;;;;;;;;;;;;;;25.65;39.95;94190.38;4953465;28;7050;-62
2022/12/06 09:37:12;;;;;;;;;;;;;;;25.66;39.39;94186.38;4947101;28;8688;-61
2022/12/06 09:39:52;;;;;;;;;;;;;;;25.65;39.62;94186.88;4891066;29;9450;-62
2022/12/06 09:42:46;;;;;;;;;;;;;;;25.67;39.61;94185.09;4898010;29;7391;-61
2022/12/06 09:45:35;;;;;;;;;;;;;;;25.66;39.72;94183.63;4915832;29;7004;-62
2022/12/06 09:48:40;;;;;;;;;;;;;;;25.67;39.85;94189.84;4921707;29;7277;-61
2022/12/06 09:51:49;;;;;;;;;;;;;;;25.66;40.58;94180.88;4904440;29;9097;-62
2022/12/06 09:54:18;;;;;;;;;;;;;;;25.67;40.56;94174.06;4912003;29;9616;-62
2022/12/06 09:56:59;;;;;;;;;;;;;;;25.68;39.66;94172.81;4907563;29;7636;-62
2022/12/06 10:00:00;;;;;;;;;;;;;;;25.70;40.48;94167.53;4912548;29;7069;-63
2022/12/06 10:02:50;;;;;;;;;;;;;;;25.70;40.34;94167.53;4901728;29;7039;-61
2022/12/06 10:05:33;;;;;;;;;;;;;;;25.69;39.83;94160.53;4917343;29;7024;-60
2022/12/06 10:08:08;;;;;;;;;;;;;;;25.71;39.80;94162.78;4902929;29;9171;-62
2022/12/06 10:10:57;;;;;;;;;;;;;;;25.71;39.19;94169.03;4914556;29;7038;-61
2022/12/06 10:13:40;;;;;;;;;;;;;;;25.73;39.94;94160.97;4910326;29;7417;-62
2022/12/06 10:16:37;;;;;;;;;;;;;;;25.73;40.23;94160.25;4976008;28;8256;-62
2022/12/06 10:19:17;;;;;;;;;;;;;;;25.72;39.55;94162.25;4981285;28;8639;-61
2022/12/06 10:21:50;;;;;;;;;;;;;;;25.71;40.22;94160.75;5004453;28;7034;-62
2022/12/06 10:24:37;;;;;;;;;;;;;;;25.72;40.06;94169.78;4990061;28;8796;-62
2022/12/06 10:27:38;;;;;;;;;;;;;;;25.74;39.99;94167.25;4988083;28;7048;-62
2022/12/06 10:30:11;;;;;;;;;;;;;;;25.72;39.47;94165.03;4987277;28;6888;-61
2022/12/06 10:33:10;;;;;;;;;;;;;;;25.73;39.52;94155.47;4975980;28;7056;-62
2022/12/06 10:35:54;;;;;;;;;;;;;;;25.74;39.78;94156.97;4985017;28;7143;-62
2022/12/06 10:38:32;;;;;;;;;;;;;;;25.75;39.86;94158.47;4986967;28;7358;-62
2022/12/06 10:41:37;;;;;;;;;;;;;;;25.74;39.84;94156.97;4990366;28;7181;-62
2022/12/06 10:44:20;;;;;;;;;;;;;;;25.74;40.28;94159.75;4895731;29;7284;-61
2022/12/06 10:47:05;;;;;;;;;;;;;;;25.73;40.21;94155.47;4905360;29;7263;-61
2022/12/06 10:50:26;;;;;;;;;;;;;;;25.76;39.82;94148.19;4893599;29;8497;-62
2022/12/06 10:53:09;;;;;;;;;;;;;;;25.75;40.03;94152.94;4893452;29;9167;-62
2022/12/06 10:56:16;;;;;;;;;;;;;;;25.74;40.60;94154.22;4902872;29;9028;-62
2022/12/06 10:58:56;;;;;;;;;;;;;;;25.77;40.13;94153.19;4914156;29;7247;-60
2022/12/06 11:01:31;;;;;;;;;;;;;;;25.76;40.22;94154.44;4913853;29;9383;-61
2022/12/06 11:04:15;;;;;;;;;;;;;;;25.77;40.32;94150.44;4901935;29;7039;-63
2022/12/06 11:07:04;;;;;;;;;;;;;;;25.78;40.23;94151.91;4913147;29;8976;-62
2022/12/06 11:09:33;;;;;;;;;;;;;;;25.78;39.91;94146.41;4888107;29;7416;-62
2022/12/06 11:12:01;;;;;;;;;;;;;;;25.79;40.20;94149.91;4912379;29;7286;-61
2022/12/06 11:14:40;;;;;;;;;;;;;;;25.80;40.48;94140.38;4904147;29;7049;-62
2022/12/06 11:17:33;;;;;;;;;;;;;;;25.81;40.13;94145.38;4923180;28;7049;-62
2022/12/06 11:20:33;;;;;;;;;;;;;;;25.83;40.10;94148.38;4983904;28;7068;-62
2022/12/06 11:23:04;;;;;;;;;;;;;;;25.85;40.44;94145.09;4951235;28;10015;-61
2022/12/06 11:28:42;;;;;;;;;;;;;;;25.89;39.65;94140.78;4961659;28;6909;-62
2022/12/06 11:31:30;;;;;;;;;;;;;;;25.93;39.77;94143.97;4959075;28;7350;-62
2022/12/06 11:34:42;;;;;;;;;;;;;;;25.95;39.69;94138.69;4952100;28;7113;-62
2022/12/06 11:37:19;;;;;;;;;;;;;;;26.00;40.11;94140.66;4906075;29;7054;-62
2022/12/06 11:40:23;;;;;;;;;;;;;;;25.97;40.28;94133.41;4892575;29;7834;-61
2022/12/06 11:42:53;;;;;;;;;;;;;;;25.94;39.94;94131.72;4880696;29;9029;-61
2022/12/06 11:45:32;;;;;;;;;;;;;;;25.95;39.88;94135.94;4893835;29;7226;-62
2022/12/06 11:48:12;;;;;;;;;;;;;;;25.96;40.18;94128.44;4885773;29;7465;-62
2022/12/06 11:50:42;;;;;;;;;;;;;;;25.92;40.67;94123.22;4899457;29;7055;-62
2022/12/06 11:53:35;;;;;;;;;;;;;;;25.95;40.45;94129.69;4899511;29;8575;-62
2022/12/06 11:56:25;;;;;;;;;;;;;;;25.95;40.24;94127.69;4889250;29;7159;-62
2022/12/06 11:59:04;;;;;;;;;;;;;;;25.95;40.65;94119.41;4896348;29;8718;-62
2022/12/06 12:01:46;;;;;;;;;;;;;;;25.97;40.61;94124.38;4908606;29;7603;-62
2022/12/06 12:04:33;;;;;;;;;;;;;;;25.96;39.81;94123.66;4916102;29;7111;-61
2022/12/06 12:07:09;;;;;;;;;;;;;;;25.97;40.72;94119.63;4916681;29;7443;-62
2022/12/06 12:10:00;;;;;;;;;;;;;;;25.98;40.23;94120.38;4922492;29;9301;-62
2022/12/06 12:16:47;;;;;;;;;;;;;;;26.03;40.85;94111.31;4953567;28;7966;-61
2022/12/06 12:19:38;;;;;;;;;;;;;;;26.05;39.94;94106.03;4902549;29;9515;-61
2022/12/06 12:22:34;;;;;;;;;;;;;;;26.06;40.54;94105.50;4890211;29;7299;-62
2022/12/06 12:25:18;;;;;;;;;;;;;;;26.07;40.21;94109.00;4897340;29;8797;-62
2022/12/06 12:28:00;;;;;;;;;;;;;;;26.07;40.58;94106.25;4891698;29;7048;-61
2022/12/06 12:31:22;;;;;;;;;;;;;;;26.06;40.72;94104.75;4887177;29;8412;-61
2022/12/06 12:34:18;;;;;;;;;;;;;;;26.07;40.27;94103.50;4851478;29;7045;-62
2022/12/06 12:36:53;;;;;;;;;;;;;;;26.09;40.52;94104.50;4834048;29;7364;-61
2022/12/06 12:39:44;;;;;;;;;;;;;;;26.11;39.60;94093.69;4854759;29;7305;-62
2022/12/06 12:42:27;;;;;;;;;;;;;;;26.11;40.00;94096.44;4857064;29;7009;-61
2022/12/06 12:44:59;;;;;;;;;;;;;;;26.14;39.80;94100.91;4852346;29;7462;-62
2022/12/06 12:47:38;;;;;;;;;;;;;;;26.16;40.39;94097.63;4844769;29;7483;-63
2022/12/06 12:50:24;;;;;;;;;;;;;;;26.19;40.08;94093.81;4872078;29;7298;-62
2022/12/06 12:52:52;;;;;;;;;;;;;;;26.22;40.07;94095.53;4896575;29;7262;-62
2022/12/06 12:55:27;;;;;;;;;;;;;;;26.24;40.15;94097.78;4913248;28;7364;-61
2022/12/06 12:57:57;;;;;;;;;;;;;;;26.25;40.30;94089.00;4950703;28;10780;-61
2022/12/06 13:00:36;;;;;;;;;;;;;;;26.28;40.64;94090.69;4953018;28;9326;-61
2022/12/06 13:03:12;;;;;;;;;;;;;;;26.33;40.13;94092.63;4952677;28;7036;-62
2022/12/06 13:05:40;;;;;;;;;;;;;;;26.36;39.93;94090.84;4937858;28;8258;-62
2022/12/06 13:08:23;;;;;;;;;;;;;;;26.38;40.49;94091.78;4971051;28;9059;-62
2022/12/06 13:10:57;;;;;;;;;;;;;;;26.39;40.27;94078.75;4977223;28;9812;-62
2022/12/06 13:13:42;;;;;;;;;;;;;;;26.44;39.93;94088.97;4985569;28;7051;-61
2022/12/06 13:16:15;;;;;;;;;;;;;;;26.43;40.35;94082.72;5000878;28;6863;-61
2022/12/06 13:18:46;;;;;;;;;;;;;;;26.46;40.30;94081.66;4998090;28;7236;-61
2022/12/06 13:21:28;;;;;;;;;;;;;;;26.49;40.14;94079.88;4987714;28;7272;-61
2022/12/06 13:24:29;;;;;;;;;;;;;;;26.51;40.52;94074.59;4983989;28;8241;-61
2022/12/06 13:27:01;;;;;;;;;;;;;;;26.52;40.12;94076.81;4983741;28;7156;-62
2022/12/06 13:29:37;;;;;;;;;;;;;;;26.57;40.14;94086.28;4993920;28;7296;-62
2022/12/06 13:32:27;;;;;;;;;;;;;;;26.60;39.85;94074.19;4985167;28;7224;-62
2022/12/06 13:35:18;;;;;;;;;;;;;;;26.61;40.44;94081.94;4991125;28;6977;-62
2022/12/06 13:38:21;;;;;;;;;;;;;;;26.64;40.21;94078.13;4984118;28;7342;-62
2022/12/06 13:41:03;;;;;;;;;;;;;;;26.65;40.07;94082.38;4938812;28;7230;-61
2022/12/06 13:43:33;;;;;;;;;;;;;;;26.67;40.33;94076.31;4945262;28;7409;-62
2022/12/06 13:46:11;;;;;;;;;;;;;;;26.67;40.27;94077.06;4951310;28;7185;-62
2022/12/06 13:49:22;;;;;;;;;;;;;;;26.71;40.80;94079.53;4938433;28;8663;-63
2022/12/06 13:51:49;;;;;;;;;;;;;;;26.73;40.55;94079.78;4955307;28;7178;-62
2022/12/06 13:54:41;;;;;;;;;;;;;;;26.75;40.91;94075.22;4969700;28;9118;-62
2022/12/06 13:57:33;;;;;;;;;;;;;;;26.79;40.24;94069.41;4958359;28;7038;-61
2022/12/06 13:59:59;;;;;;;;;;;;;;;26.79;40.04;94061.13;4949353;28;7581;-61
2022/12/06 14:02:47;;;;;;;;;;;;;;;26.81;40.34;94066.88;4955301;28;7017;-62
2022/12/06 14:08:59;;;;;;;;;;;;;;;26.88;40.58;94074.53;4917139;29;8443;-62
2022/12/06 14:12:07;;;;;;;;;;;;;;;26.88;40.45;94069.00;4900702;29;9369;-62
2022/12/06 14:14:33;;;;;;;;;;;;;;;26.88;40.07;94077.28;4852778;29;8457;-62
2022/12/06 14:17:14;;;;;;;;;;;;;;;26.89;40.57;94067.72;4849311;29;7032;-61
2022/12/06 14:19:53;;;;;;;;;;;;;;;26.90;40.70;94064.44;4842784;29;7029;-61
2022/12/06 14:23:05;;;;;;;;;;;;;;;26.92;40.67;94070.16;4855680;29;7249;-62
2022/12/06 14:25:43;;;;;;;;;;;;;;;26.93;40.43;94068.16;4824597;29;7027;-61
2022/12/06 14:28:38;;;;;;;;;;;;;;;26.96;40.57;94058.09;4852187;29;7498;-60
2022/12/06 14:31:40;;;;;;;;;;;;;;;26.94;40.76;94066.16;4836993;29;7115;-61